KINS/INS METAR and TAF weather

Enter ICAO airport designator
Station Type Date Time Source
KINS METAR 2020/04/04 19:58 UTC NOAA

KINS 041958Z AUTO 10012KT 10SM CLR 20/M08 A2974 RMK AO2 SLP045 T01951078 $


Station Type Date Time Source
KINS Decoded METAR 2020/04/04 19:58 UTC NOAA

Indian Springs, Indian Springs Auxiliary AFLD Nellis AFB, NV, United States (KINS) 36-35N 115-40W
Apr 04, 2020 - 03:58 PM EDT / 2020.04.04 1958 UTC
Wind: from the E (100 degrees) at 14 MPH (12 KT):0
Visibility: 10 mile(s):0
Sky conditions: clear
Temperature: 67.1 F (19.5 C)
Dew Point: 18.0 F (-7.8 C)
Relative Humidity: 15%
Pressure (altimeter): 29.74 in. Hg (1007 hPa)
ob: KINS 041958Z AUTO 10012KT 10SM CLR 20/M08 A2974 RMK AO2 SLP045 T01951078
cycle: 20

Station Type Date Time Source
KINS TAF 2020/04/04 05:36 UTC NOAA

TAF TAF KINS 0405/0511 VRB06KT 9999 FEW150 FEW250 QNH2976INS
BECMG 0418/0419 10009KT 9999 FEW200 QNH2967INS
BECMG 0421/0422 13015G20KT 9999 FEW200 510009 QNH2963INS WND 130V220
TEMPO 0501/0505 22018G30KT
BECMG 0504/0505 22012G20KT 9999 FEW200 QNH2967INS TX21/0422Z TN05/0412Z LAST NO
AMDS AFT 0405 NEXT 0613

Example: see airport list